SDQ weather

Las Américas International Airport
Santo Domingo, Distrito Nacional, Dominican Republic

Public forecast

Using degrees Celsius for public forecast. Weather courtesy of forecast.io.

METAR (pilot weather report)

Retrieved 2019/04/25 23:00 UTC (18 minutes ago):

MDSD 252300Z 15006KT 9999 FEW020 28/22 Q1015

TAF (pilot weather forecast)

Retrieved 2019/04/25 18:04 UTC (5 hours ago):

TAF MDSD 251600Z 2518/2618 17006KT 9999 SCT022 BECMG 1302/1304 02004KT